Fenelon Falls, Canada
Current Conditions -  °F | °C
As of 10:00 AM on Sunday 23 Nov 2014 (Local Time) from CYPQ Reporting Station
Haze Haze  
Wind Chill: 39°   Ceiling: 1900
Heat Index: 43°   Visibility: 2.5mi
Dew Point: 41°   Wind: 6mph
Humidity: 93%   Direction: 190°S
Pressure: 30"   Gusts: NA
Location:  44.53°N, 78.75°W
Report Text: CYPQ 231500Z AUTO 19005KT 2 1/2SM BR OVC019 06/05 A3000 RMK SLP163
Loading
Personal Weather Stations






























Interactive Weather Map New forecast layout! Learn more

10-Day Weather Forecast

Advertisements
Track Severe Weather on mobile